Time,TemperatureF,DewpointF,PressureIn,WindDirection,WindDirectionDegrees,WindSpeedMPH,WindSpeedGustMPH,Humidity,HourlyPrecipIn,Conditions,Clouds,dailyrainin,SolarRadiationWatts/m^2,SoftwareType,DateUTC
2013-01-08 00:02:00,36.0,34.0,-100.00,North,355,2.0,5.0,94,0.00,,,0.00,0.000000,,2013-01-08 08:02:00,
2013-01-08 00:32:00,34.0,33.0,-100.00,North,351,3.0,6.0,96,0.00,,,0.00,0.000000,,2013-01-08 08:32:00,
2013-01-08 00:42:00,34.0,33.0,-100.00,North,351,3.0,6.0,96,0.00,,,0.00,0.000000,,2013-01-08 08:42:00,
2013-01-08 00:52:00,34.0,33.0,-100.00,North,351,3.0,6.0,96,0.00,,,0.00,0.000000,,2013-01-08 08:52:00,
2013-01-08 01:02:00,34.0,33.0,-100.00,North,351,3.0,6.0,96,0.00,,,0.00,0.000000,,2013-01-08 09:02:00,
2013-01-08 01:33:00,32.0,31.0,-100.00,North,349,4.0,7.0,97,0.00,,,0.00,0.000000,,2013-01-08 09:33:00,
2013-01-08 01:42:00,32.0,31.0,-100.00,North,349,4.0,7.0,97,0.00,,,0.00,0.000000,,2013-01-08 09:42:00,
2013-01-08 01:52:00,32.0,31.0,-100.00,North,349,4.0,7.0,97,0.00,,,0.00,0.000000,,2013-01-08 09:52:00,
2013-01-08 02:02:00,32.0,31.0,-100.00,North,349,4.0,7.0,97,0.00,,,0.00,0.000000,,2013-01-08 10:02:00,
2013-01-08 02:33:00,32.0,31.0,-100.00,NNW,336,4.0,8.0,97,0.00,,,0.00,0.000000,,2013-01-08 10:33:00,
2013-01-08 02:42:00,32.0,31.0,-100.00,NNW,336,4.0,8.0,97,0.00,,,0.00,0.000000,,2013-01-08 10:42:00,
2013-01-08 02:52:00,32.0,31.0,-100.00,NNW,336,4.0,8.0,97,0.00,,,0.00,0.000000,,2013-01-08 10:52:00,
2013-01-08 03:02:00,32.0,31.0,-100.00,NNW,336,4.0,8.0,97,0.00,,,0.00,0.000000,,2013-01-08 11:02:00,
2013-01-08 03:33:00,31.0,30.0,-100.00,NNW,347,5.0,7.0,97,0.00,,,0.00,0.000000,,2013-01-08 11:33:00,
2013-01-08 03:42:00,31.0,30.0,-100.00,NNW,347,5.0,7.0,97,0.00,,,0.00,0.000000,,2013-01-08 11:42:00,
2013-01-08 03:53:00,31.0,30.0,-100.00,NNW,347,5.0,7.0,97,0.00,,,0.00,0.000000,,2013-01-08 11:53:00,
2013-01-08 04:02:00,31.0,30.0,-100.00,NNW,347,5.0,7.0,97,0.00,,,0.00,0.000000,,2013-01-08 12:02:00,
2013-01-08 04:33:00,31.0,30.0,-100.00,NNW,344,5.0,8.0,97,0.00,,,0.00,0.000000,,2013-01-08 12:33:00,
2013-01-08 04:43:00,31.0,30.0,-100.00,NNW,344,5.0,8.0,97,0.00,,,0.00,0.000000,,2013-01-08 12:43:00,
2013-01-08 04:53:00,31.0,30.0,-100.00,NNW,344,5.0,8.0,97,0.00,,,0.00,0.000000,,2013-01-08 12:53:00,
2013-01-08 05:02:00,31.0,30.0,-100.00,NNW,344,5.0,8.0,97,0.00,,,0.00,0.000000,,2013-01-08 13:02:00,
2013-01-08 05:33:00,31.0,30.0,-100.00,North,357,4.0,7.0,97,0.00,,,0.00,0.000000,,2013-01-08 13:33:00,
2013-01-08 05:43:00,31.0,30.0,-100.00,North,357,4.0,7.0,97,0.00,,,0.00,0.000000,,2013-01-08 13:43:00,
2013-01-08 05:53:00,31.0,30.0,-100.00,North,357,4.0,7.0,97,0.00,,,0.00,0.000000,,2013-01-08 13:53:00,
2013-01-08 06:02:00,31.0,30.0,-100.00,North,357,4.0,7.0,97,0.00,,,0.00,0.000000,,2013-01-08 14:02:00,
2013-01-08 06:33:00,31.0,30.0,-100.00,North,357,4.0,7.0,97,0.00,,,0.00,0.000000,,2013-01-08 14:33:00,
2013-01-08 06:43:00,31.0,30.0,-100.00,North,357,4.0,7.0,97,0.00,,,0.00,0.000000,,2013-01-08 14:43:00,
2013-01-08 06:53:00,31.0,30.0,-100.00,North,357,4.0,7.0,97,0.00,,,0.00,0.000000,,2013-01-08 14:53:00,
2013-01-08 07:02:00,31.0,30.0,-100.00,North,357,4.0,7.0,97,0.00,,,0.00,0.000000,,2013-01-08 15:02:00,
2013-01-08 07:33:00,31.0,30.0,-100.00,North,354,4.0,8.0,96,0.00,,,0.00,0.000000,,2013-01-08 15:33:00,
2013-01-08 07:43:00,31.0,30.0,-100.00,North,354,4.0,8.0,96,0.00,,,0.00,0.000000,,2013-01-08 15:43:00,
2013-01-08 07:53:00,31.0,30.0,-100.00,North,354,4.0,8.0,96,0.00,,,0.00,0.000000,,2013-01-08 15:53:00,
2013-01-08 08:02:00,31.0,30.0,-100.00,North,354,4.0,8.0,96,0.00,,,0.00,0.000000,,2013-01-08 16:02:00,
2013-01-08 08:34:00,33.0,32.0,-100.00,NNW,345,6.0,9.0,96,0.00,,,0.00,19.000000,,2013-01-08 16:34:00,
2013-01-08 08:43:00,33.0,32.0,-100.00,NNW,345,6.0,9.0,96,0.00,,,0.00,19.000000,,2013-01-08 16:43:00,
2013-01-08 08:53:00,33.0,32.0,-100.00,NNW,345,6.0,9.0,96,0.00,,,0.00,19.000000,,2013-01-08 16:53:00,
2013-01-08 09:02:00,33.0,32.0,-100.00,NNW,345,6.0,9.0,96,0.00,,,0.00,19.000000,,2013-01-08 17:02:00,
2013-01-08 09:34:00,43.0,40.0,-100.00,East,88,2.0,7.0,90,0.01,,,0.01,180.000000,,2013-01-08 17:34:00,
2013-01-08 09:43:00,43.0,40.0,-100.00,East,88,2.0,7.0,90,0.01,,,0.01,180.000000,,2013-01-08 17:43:00,
2013-01-08 09:53:00,43.0,40.0,-100.00,East,88,2.0,7.0,90,0.01,,,0.01,180.000000,,2013-01-08 17:53:00,
2013-01-08 10:03:00,43.0,40.0,-100.00,East,88,2.0,7.0,90,0.01,,,0.01,180.000000,,2013-01-08 18:03:00,
2013-01-08 10:33:00,49.0,40.0,-100.00,South,175,3.0,4.0,71,0.00,,,0.01,308.000000,,2013-01-08 18:33:00,
2013-01-08 10:43:00,49.0,40.0,-100.00,South,175,3.0,4.0,71,0.00,,,0.01,308.000000,,2013-01-08 18:43:00,
2013-01-08 10:53:00,49.0,40.0,-100.00,South,175,3.0,4.0,71,0.00,,,0.01,308.000000,,2013-01-08 18:53:00,
2013-01-08 11:02:00,49.0,40.0,-100.00,South,175,3.0,4.0,71,0.00,,,0.01,308.000000,,2013-01-08 19:02:00,
2013-01-08 11:33:00,53.0,38.0,-100.00,WSW,252,5.0,10.0,57,0.00,,,0.01,440.000000,,2013-01-08 19:33:00,
2013-01-08 11:43:00,53.0,38.0,-100.00,WSW,252,5.0,10.0,57,0.00,,,0.01,440.000000,,2013-01-08 19:43:00,
2013-01-08 11:53:00,53.0,38.0,-100.00,WSW,252,5.0,10.0,57,0.00,,,0.01,440.000000,,2013-01-08 19:53:00,
2013-01-08 12:02:00,53.0,38.0,-100.00,WSW,252,5.0,10.0,57,0.00,,,0.01,440.000000,,2013-01-08 20:02:00,
2013-01-08 12:33:00,53.0,40.0,-100.00,East,96,3.0,9.0,62,0.00,,,0.01,503.000000,,2013-01-08 20:33:00,
2013-01-08 12:43:00,53.0,40.0,-100.00,East,96,3.0,9.0,62,0.00,,,0.01,503.000000,,2013-01-08 20:43:00,
2013-01-08 12:53:00,53.0,40.0,-100.00,East,96,3.0,9.0,62,0.00,,,0.01,503.000000,,2013-01-08 20:53:00,
2013-01-08 13:02:00,53.0,40.0,-100.00,East,96,3.0,9.0,62,0.00,,,0.01,503.000000,,2013-01-08 21:02:00,
2013-01-08 13:33:00,55.0,41.0,-100.00,SE,129,4.0,7.0,60,0.00,,,0.01,511.000000,,2013-01-08 21:33:00,
2013-01-08 13:43:00,55.0,41.0,-100.00,SE,129,4.0,7.0,60,0.00,,,0.01,511.000000,,2013-01-08 21:43:00,
2013-01-08 13:53:00,55.0,41.0,-100.00,SE,129,4.0,7.0,60,0.00,,,0.01,511.000000,,2013-01-08 21:53:00,
2013-01-08 14:02:00,55.0,41.0,-100.00,SE,129,4.0,7.0,60,0.00,,,0.01,511.000000,,2013-01-08 22:02:00,
2013-01-08 14:33:00,56.0,41.0,-100.00,South,181,4.0,7.0,57,0.00,,,0.01,459.000000,,2013-01-08 22:33:00,
2013-01-08 14:43:00,56.0,41.0,-100.00,South,181,4.0,7.0,57,0.00,,,0.01,459.000000,,2013-01-08 22:43:00,
2013-01-08 14:53:00,56.0,41.0,-100.00,South,181,4.0,7.0,57,0.00,,,0.01,459.000000,,2013-01-08 22:53:00,
2013-01-08 15:02:00,56.0,41.0,-100.00,South,181,4.0,7.0,57,0.00,,,0.01,459.000000,,2013-01-08 23:02:00,
2013-01-08 15:33:00,56.0,42.0,-100.00,SW,218,4.0,7.0,59,0.00,,,0.01,353.000000,,2013-01-08 23:33:00,
2013-01-08 15:43:00,56.0,42.0,-100.00,SW,218,4.0,7.0,59,0.00,,,0.01,353.000000,,2013-01-08 23:43:00,
2013-01-08 15:53:00,56.0,42.0,-100.00,SW,218,4.0,7.0,59,0.00,,,0.01,353.000000,,2013-01-08 23:53:00,
2013-01-08 16:02:00,56.0,42.0,-100.00,SW,218,4.0,7.0,59,0.00,,,0.01,353.000000,,2013-01-09 00:02:00,
2013-01-08 16:33:00,55.0,42.0,-100.00,SSW,203,2.0,5.0,62,0.00,,,0.01,104.000000,,2013-01-09 00:33:00,
2013-01-08 16:43:00,55.0,42.0,-100.00,SSW,203,2.0,5.0,62,0.00,,,0.01,104.000000,,2013-01-09 00:43:00,
2013-01-08 16:52:00,55.0,42.0,-100.00,SSW,203,2.0,5.0,62,0.00,,,0.01,104.000000,,2013-01-09 00:52:00,
2013-01-08 17:02:00,55.0,42.0,-100.00,SSW,203,2.0,5.0,62,0.00,,,0.01,104.000000,,2013-01-09 01:02:00,
2013-01-08 17:33:00,45.0,40.0,-100.00,North,350,3.0,5.0,81,0.00,,,-99.99,12.000000,,2013-01-09 01:33:00,
2013-01-08 17:42:00,45.0,40.0,-100.00,North,350,3.0,5.0,81,0.00,,,-99.99,12.000000,,2013-01-09 01:42:00,
2013-01-08 17:52:00,45.0,40.0,-100.00,North,350,3.0,5.0,81,0.00,,,-99.99,12.000000,,2013-01-09 01:52:00,
2013-01-08 18:02:00,45.0,40.0,-100.00,North,350,3.0,5.0,81,0.00,,,-99.99,12.000000,,2013-01-09 02:02:00,
2013-01-08 18:33:00,41.0,39.0,-100.00,NNW,348,7.0,7.0,91,0.00,,,0.01,0.000000,,2013-01-09 02:33:00,
2013-01-08 18:43:00,41.0,39.0,-100.00,NNW,348,7.0,7.0,91,0.00,,,0.01,0.000000,,2013-01-09 02:43:00,
2013-01-08 18:53:00,41.0,39.0,-100.00,NNW,348,7.0,7.0,91,0.00,,,0.01,0.000000,,2013-01-09 02:53:00,
2013-01-08 19:02:00,41.0,39.0,-100.00,NNW,348,7.0,7.0,91,0.00,,,0.01,0.000000,,2013-01-09 03:02:00,
2013-01-08 19:33:00,39.0,35.0,-100.00,NNW,346,6.0,8.0,87,0.00,,,0.01,0.000000,,2013-01-09 03:33:00,
2013-01-08 19:43:00,39.0,35.0,-100.00,NNW,346,6.0,8.0,87,0.00,,,0.01,0.000000,,2013-01-09 03:43:00,
2013-01-08 19:52:00,39.0,35.0,-100.00,NNW,346,6.0,8.0,87,0.00,,,0.01,0.000000,,2013-01-09 03:52:00,
2013-01-08 20:02:00,39.0,35.0,-100.00,NNW,346,6.0,8.0,87,0.00,,,0.01,0.000000,,2013-01-09 04:02:00,
2013-01-08 20:33:00,38.0,34.0,-100.00,NNW,345,6.0,9.0,87,0.00,,,0.01,0.000000,,2013-01-09 04:33:00,
2013-01-08 20:43:00,38.0,34.0,-100.00,NNW,345,6.0,9.0,87,0.00,,,0.01,0.000000,,2013-01-09 04:43:00,
2013-01-08 20:52:00,38.0,34.0,-100.00,NNW,345,6.0,9.0,87,0.00,,,0.01,0.000000,,2013-01-09 04:52:00,
2013-01-08 21:03:00,38.0,34.0,-100.00,NNW,345,6.0,9.0,87,0.00,,,0.01,0.000000,,2013-01-09 05:03:00,
2013-01-08 21:33:00,37.0,34.0,-100.00,NNW,340,6.0,8.0,89,0.00,,,0.01,0.000000,,2013-01-09 05:33:00,
2013-01-08 21:43:00,37.0,34.0,-100.00,NNW,340,6.0,8.0,89,0.00,,,0.01,0.000000,,2013-01-09 05:43:00,
2013-01-08 21:52:00,37.0,34.0,-100.00,NNW,340,6.0,8.0,89,0.00,,,0.01,0.000000,,2013-01-09 05:52:00,
2013-01-08 22:02:00,37.0,34.0,-100.00,NNW,340,6.0,8.0,89,0.00,,,0.01,0.000000,,2013-01-09 06:02:00,
2013-01-08 22:32:00,38.0,34.0,-100.00,NNW,340,6.0,10.0,87,0.00,,,0.01,0.000000,,2013-01-09 06:32:00,
2013-01-08 22:42:00,38.0,34.0,-100.00,NNW,340,6.0,10.0,87,0.00,,,0.01,0.000000,,2013-01-09 06:42:00,
2013-01-08 22:52:00,38.0,34.0,-100.00,NNW,340,6.0,10.0,87,0.00,,,0.01,0.000000,,2013-01-09 06:52:00,
2013-01-08 23:02:00,38.0,34.0,-100.00,NNW,340,6.0,10.0,87,0.00,,,0.01,0.000000,,2013-01-09 07:02:00,
2013-01-08 23:32:00,38.0,35.0,-100.00,NNW,344,6.0,10.0,88,0.00,,,0.01,0.000000,,2013-01-09 07:32:00,
2013-01-08 23:42:00,38.0,35.0,-100.00,NNW,344,6.0,10.0,88,0.00,,,0.01,0.000000,,2013-01-09 07:42:00,
2013-01-08 23:52:00,38.0,35.0,-100.00,NNW,344,6.0,10.0,88,0.00,,,0.01,0.000000,,2013-01-09 07:52:00,